sensor_id;sensor_type;location;lat;lon;timestamp;P1;durP1;ratioP1;P2;durP2;ratioP2
30020;SDS011;16861;52.294;7.760;2023-06-14T00:00:32;6.05;;;2.22;;
30020;SDS011;16861;52.294;7.760;2023-06-14T00:03:00;5.63;;;1.90;;
30020;SDS011;16861;52.294;7.760;2023-06-14T00:05:27;4.00;;;1.70;;
30020;SDS011;16861;52.294;7.760;2023-06-14T00:07:55;3.13;;;2.00;;
30020;SDS011;16861;52.294;7.760;2023-06-14T00:10:22;5.40;;;2.10;;
30020;SDS011;16861;52.294;7.760;2023-06-14T00:12:49;7.15;;;2.08;;
30020;SDS011;16861;52.294;7.760;2023-06-14T00:15:15;3.22;;;1.98;;
30020;SDS011;16861;52.294;7.760;2023-06-14T00:17:42;2.53;;;1.73;;
30020;SDS011;16861;52.294;7.760;2023-06-14T00:20:11;1.80;;;1.65;;
30020;SDS011;16861;52.294;7.760;2023-06-14T00:22:37;7.00;;;1.90;;
30020;SDS011;16861;52.294;7.760;2023-06-14T00:25:05;2.97;;;2.00;;
30020;SDS011;16861;52.294;7.760;2023-06-14T00:27:55;5.35;;;2.28;;
30020;SDS011;16861;52.294;7.760;2023-06-14T00:30:22;2.55;;;1.73;;
30020;SDS011;16861;52.294;7.760;2023-06-14T00:32:49;2.28;;;1.80;;
30020;SDS011;16861;52.294;7.760;2023-06-14T00:35:17;2.78;;;1.77;;
30020;SDS011;16861;52.294;7.760;2023-06-14T00:37:44;2.22;;;1.92;;
30020;SDS011;16861;52.294;7.760;2023-06-14T00:40:10;3.10;;;1.95;;
30020;SDS011;16861;52.294;7.760;2023-06-14T00:42:37;2.47;;;1.92;;
30020;SDS011;16861;52.294;7.760;2023-06-14T00:45:03;5.13;;;2.17;;
30020;SDS011;16861;52.294;7.760;2023-06-14T00:47:30;3.88;;;1.73;;
30020;SDS011;16861;52.294;7.760;2023-06-14T00:49:57;3.58;;;2.25;;
30020;SDS011;16861;52.294;7.760;2023-06-14T00:52:25;6.25;;;2.10;;
30020;SDS011;16861;52.294;7.760;2023-06-14T00:54:51;3.75;;;2.00;;
30020;SDS011;16861;52.294;7.760;2023-06-14T00:57:18;4.95;;;2.03;;
30020;SDS011;16861;52.294;7.760;2023-06-14T00:59:48;3.53;;;1.67;;
30020;SDS011;16861;52.294;7.760;2023-06-14T01:02:15;4.22;;;1.90;;
30020;SDS011;16861;52.294;7.760;2023-06-14T01:04:42;3.88;;;2.00;;
30020;SDS011;16861;52.294;7.760;2023-06-14T01:07:12;3.30;;;2.05;;
30020;SDS011;16861;52.294;7.760;2023-06-14T01:15:17;6.75;;;1.95;;
30020;SDS011;16861;52.294;7.760;2023-06-14T01:17:48;2.55;;;1.92;;
30020;SDS011;16861;52.294;7.760;2023-06-14T01:20:19;4.07;;;1.80;;
30020;SDS011;16861;52.294;7.760;2023-06-14T01:22:51;5.10;;;2.05;;
30020;SDS011;16861;52.294;7.760;2023-06-14T01:25:19;4.30;;;1.90;;
30020;SDS011;16861;52.294;7.760;2023-06-14T01:27:49;3.33;;;1.80;;
30020;SDS011;16861;52.294;7.760;2023-06-14T01:30:18;2.35;;;1.83;;
30020;SDS011;16861;52.294;7.760;2023-06-14T01:32:47;3.90;;;1.83;;
30020;SDS011;16861;52.294;7.760;2023-06-14T01:35:16;5.90;;;2.28;;
30020;SDS011;16861;52.294;7.760;2023-06-14T01:37:43;3.42;;;1.95;;
30020;SDS011;16861;52.294;7.760;2023-06-14T01:40:12;3.35;;;2.00;;
30020;SDS011;16861;52.294;7.760;2023-06-14T01:42:41;2.72;;;1.80;;
30020;SDS011;16861;52.294;7.760;2023-06-14T01:45:09;5.32;;;2.25;;
30020;SDS011;16861;52.294;7.760;2023-06-14T01:47:36;5.57;;;2.63;;
30020;SDS011;16861;52.294;7.760;2023-06-14T01:50:03;4.05;;;1.98;;
30020;SDS011;16861;52.294;7.760;2023-06-14T01:52:30;4.28;;;2.20;;
30020;SDS011;16861;52.294;7.760;2023-06-14T01:54:57;3.47;;;2.13;;
30020;SDS011;16861;52.294;7.760;2023-06-14T01:57:24;3.95;;;2.00;;
30020;SDS011;16861;52.294;7.760;2023-06-14T01:59:52;4.63;;;2.00;;
30020;SDS011;16861;52.294;7.760;2023-06-14T02:02:19;5.05;;;2.20;;
30020;SDS011;16861;52.294;7.760;2023-06-14T02:04:45;4.95;;;1.90;;
30020;SDS011;16861;52.294;7.760;2023-06-14T02:07:13;4.80;;;2.15;;
30020;SDS011;16861;52.294;7.760;2023-06-14T02:09:41;5.13;;;1.80;;
30020;SDS011;16861;52.294;7.760;2023-06-14T02:12:08;3.08;;;1.92;;
30020;SDS011;16861;52.294;7.760;2023-06-14T02:14:34;4.80;;;1.95;;
30020;SDS011;16861;52.294;7.760;2023-06-14T02:17:01;2.88;;;1.98;;
30020;SDS011;16861;52.294;7.760;2023-06-14T02:19:27;5.22;;;2.65;;
30020;SDS011;16861;52.294;7.760;2023-06-14T02:21:54;5.05;;;1.95;;
30020;SDS011;16861;52.294;7.760;2023-06-14T02:24:21;2.50;;;1.88;;
30020;SDS011;16861;52.294;7.760;2023-06-14T02:26:47;2.83;;;1.92;;
30020;SDS011;16861;52.294;7.760;2023-06-14T02:29:14;8.13;;;2.55;;
30020;SDS011;16861;52.294;7.760;2023-06-14T02:31:41;7.72;;;2.05;;
30020;SDS011;16861;52.294;7.760;2023-06-14T02:34:07;5.43;;;1.95;;
30020;SDS011;16861;52.294;7.760;2023-06-14T02:36:36;6.57;;;2.13;;
30020;SDS011;16861;52.294;7.760;2023-06-14T02:39:08;2.70;;;1.80;;
30020;SDS011;16861;52.294;7.760;2023-06-14T02:41:39;4.88;;;2.38;;
30020;SDS011;16861;52.294;7.760;2023-06-14T02:44:06;3.58;;;2.25;;
30020;SDS011;16861;52.294;7.760;2023-06-14T02:46:32;5.05;;;2.22;;
30020;SDS011;16861;52.294;7.760;2023-06-14T02:48:59;3.50;;;1.73;;
30020;SDS011;16861;52.294;7.760;2023-06-14T02:51:26;7.45;;;2.13;;
30020;SDS011;16861;52.294;7.760;2023-06-14T02:53:52;4.05;;;2.25;;
30020;SDS011;16861;52.294;7.760;2023-06-14T02:56:19;5.15;;;2.17;;
30020;SDS011;16861;52.294;7.760;2023-06-14T02:58:45;7.72;;;2.58;;
30020;SDS011;16861;52.294;7.760;2023-06-14T03:01:12;4.80;;;2.00;;
30020;SDS011;16861;52.294;7.760;2023-06-14T03:03:40;6.95;;;2.35;;
30020;SDS011;16861;52.294;7.760;2023-06-14T03:06:06;5.00;;;2.03;;
30020;SDS011;16861;52.294;7.760;2023-06-14T03:08:34;2.60;;;1.95;;
30020;SDS011;16861;52.294;7.760;2023-06-14T03:11:04;4.85;;;2.10;;
30020;SDS011;16861;52.294;7.760;2023-06-14T03:13:31;4.32;;;2.63;;
30020;SDS011;16861;52.294;7.760;2023-06-14T03:15:58;4.43;;;2.10;;
30020;SDS011;16861;52.294;7.760;2023-06-14T03:18:25;4.70;;;2.13;;
30020;SDS011;16861;52.294;7.760;2023-06-14T03:20:53;7.50;;;2.38;;
30020;SDS011;16861;52.294;7.760;2023-06-14T03:23:20;4.18;;;2.10;;
30020;SDS011;16861;52.294;7.760;2023-06-14T03:25:47;3.78;;;2.22;;
30020;SDS011;16861;52.294;7.760;2023-06-14T03:28:14;6.90;;;2.00;;
30020;SDS011;16861;52.294;7.760;2023-06-14T03:30:40;2.92;;;2.20;;
30020;SDS011;16861;52.294;7.760;2023-06-14T03:33:07;3.45;;;2.40;;
30020;SDS011;16861;52.294;7.760;2023-06-14T03:35:34;6.90;;;1.98;;
30020;SDS011;16861;52.294;7.760;2023-06-14T03:38:01;3.90;;;2.30;;
30020;SDS011;16861;52.294;7.760;2023-06-14T03:40:28;3.60;;;2.20;;
30020;SDS011;16861;52.294;7.760;2023-06-14T03:42:55;3.25;;;2.22;;
30020;SDS011;16861;52.294;7.760;2023-06-14T03:45:21;4.25;;;2.40;;
30020;SDS011;16861;52.294;7.760;2023-06-14T03:47:48;4.32;;;2.50;;
30020;SDS011;16861;52.294;7.760;2023-06-14T03:50:14;3.38;;;2.10;;
30020;SDS011;16861;52.294;7.760;2023-06-14T03:52:41;5.30;;;2.45;;
30020;SDS011;16861;52.294;7.760;2023-06-14T03:55:09;3.75;;;2.58;;
30020;SDS011;16861;52.294;7.760;2023-06-14T03:57:40;3.45;;;2.33;;
30020;SDS011;16861;52.294;7.760;2023-06-14T04:00:07;3.80;;;2.28;;
30020;SDS011;16861;52.294;7.760;2023-06-14T04:02:35;5.10;;;2.30;;
30020;SDS011;16861;52.294;7.760;2023-06-14T04:05:03;3.55;;;2.10;;
30020;SDS011;16861;52.294;7.760;2023-06-14T04:07:30;5.35;;;2.38;;
30020;SDS011;16861;52.294;7.760;2023-06-14T04:09:56;4.90;;;1.85;;
30020;SDS011;16861;52.294;7.760;2023-06-14T04:12:23;2.80;;;2.20;;
30020;SDS011;16861;52.294;7.760;2023-06-14T04:14:49;5.10;;;2.38;;
30020;SDS011;16861;52.294;7.760;2023-06-14T04:17:16;3.47;;;2.50;;
30020;SDS011;16861;52.294;7.760;2023-06-14T04:19:42;3.75;;;2.25;;
30020;SDS011;16861;52.294;7.760;2023-06-14T04:22:08;6.30;;;2.53;;
30020;SDS011;16861;52.294;7.760;2023-06-14T04:24:36;2.55;;;2.15;;
30020;SDS011;16861;52.294;7.760;2023-06-14T04:27:03;3.13;;;2.30;;
30020;SDS011;16861;52.294;7.760;2023-06-14T04:29:29;5.80;;;2.85;;
30020;SDS011;16861;52.294;7.760;2023-06-14T04:31:57;2.33;;;2.03;;
30020;SDS011;16861;52.294;7.760;2023-06-14T04:34:28;5.18;;;2.35;;
30020;SDS011;16861;52.294;7.760;2023-06-14T04:36:56;5.32;;;2.30;;
30020;SDS011;16861;52.294;7.760;2023-06-14T04:39:22;3.45;;;2.65;;
30020;SDS011;16861;52.294;7.760;2023-06-14T04:41:49;3.53;;;2.28;;
30020;SDS011;16861;52.294;7.760;2023-06-14T04:44:23;3.40;;;2.53;;
30020;SDS011;16861;52.294;7.760;2023-06-14T04:49:25;4.13;;;2.38;;
30020;SDS011;16861;52.294;7.760;2023-06-14T04:51:53;6.32;;;2.53;;
30020;SDS011;16861;52.294;7.760;2023-06-14T04:54:25;3.78;;;2.22;;
30020;SDS011;16861;52.294;7.760;2023-06-14T04:56:51;2.58;;;2.20;;
30020;SDS011;16861;52.294;7.760;2023-06-14T04:59:19;6.80;;;2.72;;
30020;SDS011;16861;52.294;7.760;2023-06-14T05:01:45;2.97;;;2.22;;
30020;SDS011;16861;52.294;7.760;2023-06-14T05:04:15;6.97;;;2.67;;
30020;SDS011;16861;52.294;7.760;2023-06-14T05:06:42;4.85;;;2.45;;
30020;SDS011;16861;52.294;7.760;2023-06-14T05:09:14;6.35;;;2.92;;
30020;SDS011;16861;52.294;7.760;2023-06-14T05:11:42;4.03;;;2.33;;
30020;SDS011;16861;52.294;7.760;2023-06-14T05:14:10;5.75;;;2.28;;
30020;SDS011;16861;52.294;7.760;2023-06-14T05:16:37;5.03;;;2.40;;
30020;SDS011;16861;52.294;7.760;2023-06-14T05:19:06;8.23;;;2.30;;
30020;SDS011;16861;52.294;7.760;2023-06-14T05:21:33;5.18;;;2.35;;
30020;SDS011;16861;52.294;7.760;2023-06-14T05:24:08;6.15;;;2.22;;
30020;SDS011;16861;52.294;7.760;2023-06-14T05:26:35;3.85;;;2.90;;
30020;SDS011;16861;52.294;7.760;2023-06-14T05:29:02;4.43;;;2.47;;
30020;SDS011;16861;52.294;7.760;2023-06-14T05:31:28;4.30;;;2.03;;
30020;SDS011;16861;52.294;7.760;2023-06-14T05:33:55;2.63;;;2.10;;
30020;SDS011;16861;52.294;7.760;2023-06-14T05:36:21;3.35;;;2.70;;
30020;SDS011;16861;52.294;7.760;2023-06-14T05:38:48;4.03;;;2.30;;
30020;SDS011;16861;52.294;7.760;2023-06-14T05:41:15;5.50;;;2.10;;
30020;SDS011;16861;52.294;7.760;2023-06-14T05:43:41;8.30;;;2.20;;
30020;SDS011;16861;52.294;7.760;2023-06-14T05:46:07;4.43;;;2.30;;
30020;SDS011;16861;52.294;7.760;2023-06-14T05:48:34;11.73;;;2.88;;
30020;SDS011;16861;52.294;7.760;2023-06-14T05:51:00;7.78;;;2.47;;
30020;SDS011;16861;52.294;7.760;2023-06-14T05:53:27;4.85;;;2.50;;
30020;SDS011;16861;52.294;7.760;2023-06-14T05:55:53;5.07;;;2.30;;
30020;SDS011;16861;52.294;7.760;2023-06-14T05:58:21;7.60;;;2.58;;
30020;SDS011;16861;52.294;7.760;2023-06-14T06:00:48;5.40;;;2.53;;
30020;SDS011;16861;52.294;7.760;2023-06-14T06:03:14;6.28;;;2.53;;
30020;SDS011;16861;52.294;7.760;2023-06-14T06:05:41;6.95;;;2.40;;
30020;SDS011;16861;52.294;7.760;2023-06-14T06:08:07;3.55;;;2.10;;
30020;SDS011;16861;52.294;7.760;2023-06-14T06:10:33;5.65;;;2.30;;
30020;SDS011;16861;52.294;7.760;2023-06-14T06:13:00;3.70;;;2.30;;
30020;SDS011;16861;52.294;7.760;2023-06-14T06:15:26;5.43;;;2.45;;
30020;SDS011;16861;52.294;7.760;2023-06-14T06:17:53;4.07;;;2.25;;
30020;SDS011;16861;52.294;7.760;2023-06-14T06:20:22;2.92;;;2.55;;
30020;SDS011;16861;52.294;7.760;2023-06-14T06:22:56;6.65;;;2.15;;
30020;SDS011;16861;52.294;7.760;2023-06-14T06:25:26;2.90;;;2.30;;
30020;SDS011;16861;52.294;7.760;2023-06-14T06:27:57;4.27;;;2.43;;
30020;SDS011;16861;52.294;7.760;2023-06-14T06:30:24;4.25;;;2.60;;
30020;SDS011;16861;52.294;7.760;2023-06-14T06:32:51;5.32;;;2.38;;
30020;SDS011;16861;52.294;7.760;2023-06-14T06:35:18;2.67;;;2.33;;
30020;SDS011;16861;52.294;7.760;2023-06-14T06:37:44;7.53;;;2.40;;
30020;SDS011;16861;52.294;7.760;2023-06-14T06:40:11;5.13;;;2.47;;
30020;SDS011;16861;52.294;7.760;2023-06-14T06:42:38;4.63;;;2.10;;
30020;SDS011;16861;52.294;7.760;2023-06-14T06:45:04;3.05;;;1.70;;
30020;SDS011;16861;52.294;7.760;2023-06-14T06:47:32;5.53;;;1.88;;
30020;SDS011;16861;52.294;7.760;2023-06-14T06:49:58;3.30;;;2.00;;
30020;SDS011;16861;52.294;7.760;2023-06-14T06:52:24;3.92;;;1.90;;
30020;SDS011;16861;52.294;7.760;2023-06-14T06:54:51;3.85;;;2.00;;
30020;SDS011;16861;52.294;7.760;2023-06-14T06:57:21;2.90;;;2.10;;
30020;SDS011;16861;52.294;7.760;2023-06-14T06:59:49;2.75;;;1.83;;
30020;SDS011;16861;52.294;7.760;2023-06-14T07:02:16;2.83;;;1.63;;
30020;SDS011;16861;52.294;7.760;2023-06-14T07:04:43;4.03;;;2.00;;
30020;SDS011;16861;52.294;7.760;2023-06-14T07:07:09;3.85;;;2.00;;
30020;SDS011;16861;52.294;7.760;2023-06-14T07:09:36;4.13;;;2.03;;
30020;SDS011;16861;52.294;7.760;2023-06-14T07:12:02;4.88;;;1.70;;
30020;SDS011;16861;52.294;7.760;2023-06-14T07:14:29;2.92;;;1.50;;
30020;SDS011;16861;52.294;7.760;2023-06-14T07:16:56;1.95;;;1.58;;
30020;SDS011;16861;52.294;7.760;2023-06-14T07:19:22;2.00;;;1.30;;
30020;SDS011;16861;52.294;7.760;2023-06-14T07:21:49;3.28;;;1.38;;
30020;SDS011;16861;52.294;7.760;2023-06-14T07:24:15;2.65;;;1.45;;
30020;SDS011;16861;52.294;7.760;2023-06-14T07:26:42;5.22;;;1.90;;
30020;SDS011;16861;52.294;7.760;2023-06-14T07:29:08;2.28;;;1.42;;
30020;SDS011;16861;52.294;7.760;2023-06-14T07:31:34;2.38;;;1.30;;
30020;SDS011;16861;52.294;7.760;2023-06-14T07:34:01;5.38;;;1.60;;
30020;SDS011;16861;52.294;7.760;2023-06-14T07:36:28;1.60;;;1.27;;
30020;SDS011;16861;52.294;7.760;2023-06-14T07:38:54;2.17;;;1.42;;
30020;SDS011;16861;52.294;7.760;2023-06-14T07:41:21;3.38;;;1.50;;
30020;SDS011;16861;52.294;7.760;2023-06-14T07:43:51;4.45;;;1.65;;
30020;SDS011;16861;52.294;7.760;2023-06-14T07:46:17;2.88;;;1.55;;
30020;SDS011;16861;52.294;7.760;2023-06-14T07:48:44;4.07;;;1.52;;
30020;SDS011;16861;52.294;7.760;2023-06-14T07:51:10;2.85;;;1.50;;
30020;SDS011;16861;52.294;7.760;2023-06-14T07:53:37;2.42;;;1.60;;
30020;SDS011;16861;52.294;7.760;2023-06-14T07:56:03;2.17;;;1.70;;
30020;SDS011;16861;52.294;7.760;2023-06-14T07:58:30;3.38;;;1.55;;
30020;SDS011;16861;52.294;7.760;2023-06-14T08:00:56;3.30;;;1.80;;
30020;SDS011;16861;52.294;7.760;2023-06-14T08:03:22;2.08;;;1.42;;
30020;SDS011;16861;52.294;7.760;2023-06-14T08:05:50;3.95;;;1.80;;
30020;SDS011;16861;52.294;7.760;2023-06-14T08:08:16;3.88;;;1.50;;
30020;SDS011;16861;52.294;7.760;2023-06-14T08:10:43;5.30;;;1.77;;
30020;SDS011;16861;52.294;7.760;2023-06-14T08:13:10;3.10;;;1.52;;
30020;SDS011;16861;52.294;7.760;2023-06-14T08:15:36;5.90;;;1.42;;
30020;SDS011;16861;52.294;7.760;2023-06-14T08:18:03;1.63;;;1.38;;
30020;SDS011;16861;52.294;7.760;2023-06-14T08:20:29;2.38;;;1.60;;
30020;SDS011;16861;52.294;7.760;2023-06-14T08:22:58;8.95;;;1.48;;
30020;SDS011;16861;52.294;7.760;2023-06-14T08:25:24;4.80;;;1.65;;
30020;SDS011;16861;52.294;7.760;2023-06-14T08:27:51;3.83;;;1.27;;
30020;SDS011;16861;52.294;7.760;2023-06-14T08:30:18;1.80;;;1.17;;
30020;SDS011;16861;52.294;7.760;2023-06-14T08:32:45;7.88;;;1.48;;
30020;SDS011;16861;52.294;7.760;2023-06-14T08:35:14;4.57;;;1.30;;
30020;SDS011;16861;52.294;7.760;2023-06-14T08:37:42;6.63;;;1.20;;
30020;SDS011;16861;52.294;7.760;2023-06-14T08:40:13;2.50;;;1.20;;
30020;SDS011;16861;52.294;7.760;2023-06-14T08:42:43;1.60;;;1.10;;
30020;SDS011;16861;52.294;7.760;2023-06-14T08:45:11;1.60;;;1.02;;
30020;SDS011;16861;52.294;7.760;2023-06-14T08:47:38;1.17;;;1.00;;
30020;SDS011;16861;52.294;7.760;2023-06-14T08:50:07;2.72;;;0.90;;
30020;SDS011;16861;52.294;7.760;2023-06-14T08:52:57;2.22;;;1.00;;
30020;SDS011;16861;52.294;7.760;2023-06-14T08:55:29;1.65;;;0.90;;
30020;SDS011;16861;52.294;7.760;2023-06-14T08:58:01;2.70;;;1.10;;
30020;SDS011;16861;52.294;7.760;2023-06-14T09:00:29;2.70;;;1.00;;
30020;SDS011;16861;52.294;7.760;2023-06-14T09:02:56;4.25;;;0.88;;
30020;SDS011;16861;52.294;7.760;2023-06-14T09:05:26;1.77;;;0.93;;
30020;SDS011;16861;52.294;7.760;2023-06-14T09:07:56;4.88;;;1.38;;
30020;SDS011;16861;52.294;7.760;2023-06-14T09:10:30;1.42;;;1.13;;
30020;SDS011;16861;52.294;7.760;2023-06-14T09:13:04;1.40;;;1.25;;
30020;SDS011;16861;52.294;7.760;2023-06-14T09:15:31;2.63;;;1.08;;
30020;SDS011;16861;52.294;7.760;2023-06-14T09:18:00;1.77;;;1.30;;
30020;SDS011;16861;52.294;7.760;2023-06-14T09:20:28;1.95;;;1.23;;
30020;SDS011;16861;52.294;7.760;2023-06-14T09:22:56;2.42;;;1.02;;
30020;SDS011;16861;52.294;7.760;2023-06-14T09:25:23;2.03;;;1.13;;
30020;SDS011;16861;52.294;7.760;2023-06-14T09:28:06;2.20;;;1.10;;
30020;SDS011;16861;52.294;7.760;2023-06-14T09:30:33;1.15;;;0.98;;
30020;SDS011;16861;52.294;7.760;2023-06-14T09:32:59;2.20;;;1.08;;
30020;SDS011;16861;52.294;7.760;2023-06-14T09:35:27;1.58;;;1.20;;
30020;SDS011;16861;52.294;7.760;2023-06-14T09:37:57;1.75;;;1.05;;
30020;SDS011;16861;52.294;7.760;2023-06-14T09:40:23;0.88;;;0.88;;
30020;SDS011;16861;52.294;7.760;2023-06-14T09:42:50;6.57;;;1.33;;
30020;SDS011;16861;52.294;7.760;2023-06-14T09:45:18;3.70;;;1.10;;
30020;SDS011;16861;52.294;7.760;2023-06-14T09:47:51;3.15;;;1.40;;
30020;SDS011;16861;52.294;7.760;2023-06-14T09:50:32;3.72;;;1.05;;
30020;SDS011;16861;52.294;7.760;2023-06-14T09:53:02;0.98;;;0.98;;
30020;SDS011;16861;52.294;7.760;2023-06-14T09:58:03;1.95;;;1.00;;
30020;SDS011;16861;52.294;7.760;2023-06-14T10:00:32;2.67;;;0.98;;
30020;SDS011;16861;52.294;7.760;2023-06-14T10:03:03;3.10;;;0.98;;
30020;SDS011;16861;52.294;7.760;2023-06-14T10:05:36;2.33;;;1.20;;
30020;SDS011;16861;52.294;7.760;2023-06-14T10:08:13;1.98;;;0.95;;
30020;SDS011;16861;52.294;7.760;2023-06-14T10:10:44;4.70;;;1.30;;
30020;SDS011;16861;52.294;7.760;2023-06-14T10:13:11;3.17;;;1.52;;
30020;SDS011;16861;52.294;7.760;2023-06-14T10:15:51;2.15;;;1.00;;
30020;SDS011;16861;52.294;7.760;2023-06-14T10:23:55;1.75;;;1.17;;
30020;SDS011;16861;52.294;7.760;2023-06-14T10:26:26;7.28;;;1.48;;
30020;SDS011;16861;52.294;7.760;2023-06-14T10:29:00;0.93;;;0.80;;
30020;SDS011;16861;52.294;7.760;2023-06-14T10:31:43;1.15;;;1.00;;
30020;SDS011;16861;52.294;7.760;2023-06-14T10:34:11;3.22;;;1.10;;
30020;SDS011;16861;52.294;7.760;2023-06-14T10:39:31;3.22;;;0.98;;
30020;SDS011;16861;52.294;7.760;2023-06-14T10:41:58;2.80;;;1.00;;
30020;SDS011;16861;52.294;7.760;2023-06-14T10:46:55;1.52;;;1.10;;
30020;SDS011;16861;52.294;7.760;2023-06-14T10:49:40;4.57;;;1.30;;
30020;SDS011;16861;52.294;7.760;2023-06-14T10:52:12;1.30;;;1.02;;
30020;SDS011;16861;52.294;7.760;2023-06-14T11:00:17;4.68;;;1.10;;
30020;SDS011;16861;52.294;7.760;2023-06-14T11:05:53;1.70;;;0.98;;
30020;SDS011;16861;52.294;7.760;2023-06-14T11:11:01;1.63;;;1.10;;
30020;SDS011;16861;52.294;7.760;2023-06-14T11:13:32;2.13;;;1.20;;
30020;SDS011;16861;52.294;7.760;2023-06-14T11:15:59;1.20;;;1.10;;
30020;SDS011;16861;52.294;7.760;2023-06-14T11:18:27;2.45;;;0.80;;
30020;SDS011;16861;52.294;7.760;2023-06-14T11:20:54;0.90;;;0.70;;
30020;SDS011;16861;52.294;7.760;2023-06-14T11:23:21;1.38;;;0.80;;
30020;SDS011;16861;52.294;7.760;2023-06-14T11:25:52;1.90;;;1.00;;
30020;SDS011;16861;52.294;7.760;2023-06-14T11:28:19;1.25;;;0.70;;
30020;SDS011;16861;52.294;7.760;2023-06-14T11:31:00;3.65;;;0.98;;
30020;SDS011;16861;52.294;7.760;2023-06-14T11:33:27;3.17;;;0.95;;
30020;SDS011;16861;52.294;7.760;2023-06-14T11:35:54;2.90;;;0.98;;
30020;SDS011;16861;52.294;7.760;2023-06-14T11:38:21;0.98;;;0.88;;
30020;SDS011;16861;52.294;7.760;2023-06-14T11:40:48;0.88;;;0.88;;
30020;SDS011;16861;52.294;7.760;2023-06-14T11:43:14;1.15;;;0.80;;
30020;SDS011;16861;52.294;7.760;2023-06-14T11:45:41;1.30;;;0.88;;
30020;SDS011;16861;52.294;7.760;2023-06-14T11:48:09;3.28;;;0.93;;
30020;SDS011;16861;52.294;7.760;2023-06-14T11:50:37;3.63;;;1.00;;
30020;SDS011;16861;52.294;7.760;2023-06-14T11:53:04;4.85;;;0.95;;
30020;SDS011;16861;52.294;7.760;2023-06-14T11:55:39;0.82;;;0.68;;
30020;SDS011;16861;52.294;7.760;2023-06-14T11:58:07;0.93;;;0.90;;
30020;SDS011;16861;52.294;7.760;2023-06-14T12:00:35;1.20;;;0.70;;
30020;SDS011;16861;52.294;7.760;2023-06-14T12:03:03;0.80;;;0.70;;
30020;SDS011;16861;52.294;7.760;2023-06-14T12:05:30;0.77;;;0.68;;
30020;SDS011;16861;52.294;7.760;2023-06-14T12:08:01;0.82;;;0.82;;
30020;SDS011;16861;52.294;7.760;2023-06-14T12:12:58;4.50;;;0.80;;
30020;SDS011;16861;52.294;7.760;2023-06-14T12:15:29;0.98;;;0.88;;
30020;SDS011;16861;52.294;7.760;2023-06-14T12:17:57;0.60;;;0.60;;
30020;SDS011;16861;52.294;7.760;2023-06-14T12:20:28;1.00;;;0.90;;
30020;SDS011;16861;52.294;7.760;2023-06-14T12:22:57;3.50;;;0.98;;
30020;SDS011;16861;52.294;7.760;2023-06-14T12:28:04;1.23;;;0.73;;
30020;SDS011;16861;52.294;7.760;2023-06-14T12:30:32;1.00;;;0.80;;
30020;SDS011;16861;52.294;7.760;2023-06-14T12:33:00;0.80;;;0.70;;
30020;SDS011;16861;52.294;7.760;2023-06-14T12:35:28;1.02;;;0.82;;
30020;SDS011;16861;52.294;7.760;2023-06-14T12:37:56;1.67;;;0.95;;
30020;SDS011;16861;52.294;7.760;2023-06-14T12:40:23;1.20;;;0.90;;
30020;SDS011;16861;52.294;7.760;2023-06-14T12:42:50;4.53;;;0.90;;
30020;SDS011;16861;52.294;7.760;2023-06-14T12:45:16;2.65;;;0.70;;
30020;SDS011;16861;52.294;7.760;2023-06-14T12:47:44;5.05;;;0.90;;
30020;SDS011;16861;52.294;7.760;2023-06-14T12:50:11;2.67;;;0.90;;
30020;SDS011;16861;52.294;7.760;2023-06-14T12:52:38;3.20;;;0.75;;
30020;SDS011;16861;52.294;7.760;2023-06-14T12:55:05;1.05;;;0.95;;
30020;SDS011;16861;52.294;7.760;2023-06-14T12:57:32;3.00;;;0.90;;
30020;SDS011;16861;52.294;7.760;2023-06-14T12:59:59;1.00;;;0.70;;
30020;SDS011;16861;52.294;7.760;2023-06-14T13:02:26;1.23;;;0.98;;
30020;SDS011;16861;52.294;7.760;2023-06-14T13:04:53;1.67;;;0.90;;
30020;SDS011;16861;52.294;7.760;2023-06-14T13:07:20;1.88;;;0.88;;
30020;SDS011;16861;52.294;7.760;2023-06-14T13:09:47;1.35;;;0.90;;
30020;SDS011;16861;52.294;7.760;2023-06-14T13:12:13;2.60;;;0.80;;
30020;SDS011;16861;52.294;7.760;2023-06-14T13:14:40;1.80;;;0.80;;
30020;SDS011;16861;52.294;7.760;2023-06-14T13:17:10;1.00;;;0.80;;
30020;SDS011;16861;52.294;7.760;2023-06-14T13:19:37;0.98;;;0.88;;
30020;SDS011;16861;52.294;7.760;2023-06-14T13:22:04;1.00;;;0.80;;
30020;SDS011;16861;52.294;7.760;2023-06-14T13:24:31;1.55;;;0.68;;
30020;SDS011;16861;52.294;7.760;2023-06-14T13:26:58;8.45;;;1.30;;
30020;SDS011;16861;52.294;7.760;2023-06-14T13:29:24;0.70;;;0.70;;
30020;SDS011;16861;52.294;7.760;2023-06-14T13:31:52;1.10;;;1.00;;
30020;SDS011;16861;52.294;7.760;2023-06-14T13:34:22;1.25;;;0.90;;
30020;SDS011;16861;52.294;7.760;2023-06-14T13:36:49;0.80;;;0.70;;
30020;SDS011;16861;52.294;7.760;2023-06-14T13:39:16;0.90;;;0.90;;
30020;SDS011;16861;52.294;7.760;2023-06-14T13:41:42;2.65;;;0.75;;
30020;SDS011;16861;52.294;7.760;2023-06-14T13:44:09;3.15;;;0.80;;
30020;SDS011;16861;52.294;7.760;2023-06-14T13:46:42;2.45;;;0.88;;
30020;SDS011;16861;52.294;7.760;2023-06-14T13:49:09;1.20;;;0.80;;
30020;SDS011;16861;52.294;7.760;2023-06-14T13:51:36;1.35;;;0.90;;
30020;SDS011;16861;52.294;7.760;2023-06-14T13:54:03;4.80;;;0.90;;
30020;SDS011;16861;52.294;7.760;2023-06-14T13:56:29;2.25;;;1.10;;
30020;SDS011;16861;52.294;7.760;2023-06-14T13:58:56;2.20;;;0.90;;
30020;SDS011;16861;52.294;7.760;2023-06-14T14:01:23;3.05;;;1.08;;
30020;SDS011;16861;52.294;7.760;2023-06-14T14:03:52;1.58;;;0.70;;
30020;SDS011;16861;52.294;7.760;2023-06-14T14:06:18;1.75;;;0.80;;
30020;SDS011;16861;52.294;7.760;2023-06-14T14:08:45;1.33;;;0.88;;
30020;SDS011;16861;52.294;7.760;2023-06-14T14:11:13;2.65;;;1.35;;
30020;SDS011;16861;52.294;7.760;2023-06-14T14:13:39;2.83;;;1.00;;
30020;SDS011;16861;52.294;7.760;2023-06-14T14:16:06;4.05;;;1.40;;
30020;SDS011;16861;52.294;7.760;2023-06-14T14:18:33;2.60;;;0.90;;
30020;SDS011;16861;52.294;7.760;2023-06-14T14:21:00;1.27;;;0.85;;
30020;SDS011;16861;52.294;7.760;2023-06-14T14:23:27;2.88;;;1.02;;
30020;SDS011;16861;52.294;7.760;2023-06-14T14:25:54;3.30;;;0.98;;
30020;SDS011;16861;52.294;7.760;2023-06-14T14:28:21;2.08;;;0.98;;
30020;SDS011;16861;52.294;7.760;2023-06-14T14:30:47;2.58;;;1.17;;
30020;SDS011;16861;52.294;7.760;2023-06-14T14:33:14;1.35;;;0.98;;
30020;SDS011;16861;52.294;7.760;2023-06-14T14:35:43;1.23;;;1.05;;
30020;SDS011;16861;52.294;7.760;2023-06-14T14:38:14;1.63;;;1.05;;
30020;SDS011;16861;52.294;7.760;2023-06-14T14:40:43;0.80;;;0.80;;
30020;SDS011;16861;52.294;7.760;2023-06-14T14:43:11;0.80;;;0.80;;
30020;SDS011;16861;52.294;7.760;2023-06-14T14:45:37;2.95;;;1.35;;
30020;SDS011;16861;52.294;7.760;2023-06-14T14:48:04;3.58;;;1.02;;
30020;SDS011;16861;52.294;7.760;2023-06-14T14:50:32;2.08;;;1.15;;
30020;SDS011;16861;52.294;7.760;2023-06-14T14:52:59;7.03;;;1.00;;
30020;SDS011;16861;52.294;7.760;2023-06-14T14:55:25;1.55;;;1.20;;
30020;SDS011;16861;52.294;7.760;2023-06-14T14:57:52;1.75;;;1.30;;
30020;SDS011;16861;52.294;7.760;2023-06-14T15:00:19;2.20;;;0.90;;
30020;SDS011;16861;52.294;7.760;2023-06-14T15:02:46;2.40;;;1.20;;
30020;SDS011;16861;52.294;7.760;2023-06-14T15:05:12;3.75;;;0.95;;
30020;SDS011;16861;52.294;7.760;2023-06-14T15:07:39;2.55;;;1.13;;
30020;SDS011;16861;52.294;7.760;2023-06-14T15:10:07;2.38;;;1.20;;
30020;SDS011;16861;52.294;7.760;2023-06-14T15:12:34;3.22;;;1.20;;
30020;SDS011;16861;52.294;7.760;2023-06-14T15:15:01;1.75;;;1.20;;
30020;SDS011;16861;52.294;7.760;2023-06-14T15:17:29;1.20;;;1.10;;
30020;SDS011;16861;52.294;7.760;2023-06-14T15:19:56;1.42;;;1.20;;
30020;SDS011;16861;52.294;7.760;2023-06-14T15:22:22;3.25;;;1.60;;
30020;SDS011;16861;52.294;7.760;2023-06-14T15:24:49;1.60;;;1.20;;
30020;SDS011;16861;52.294;7.760;2023-06-14T15:27:16;9.80;;;1.88;;
30020;SDS011;16861;52.294;7.760;2023-06-14T15:29:43;1.45;;;1.08;;